createdAt,value
2018-01-15T00:01:27.065Z,1.20
2018-01-15T00:03:53.296Z,1.20
2018-01-15T00:06:19.546Z,1.20
2018-01-15T00:08:45.796Z,1.20
2018-01-15T00:11:12.045Z,1.20
2018-01-15T00:13:39.092Z,1.30
2018-01-15T00:16:05.620Z,1.20
2018-01-15T00:18:31.855Z,1.20
2018-01-15T00:20:58.124Z,1.20
2018-01-15T00:23:24.324Z,1.20
2018-01-15T00:25:50.568Z,1.20
2018-01-15T00:28:16.816Z,1.20
2018-01-15T00:30:43.064Z,1.20
2018-01-15T00:33:09.316Z,1.20
2018-01-15T00:35:35.553Z,1.10
2018-01-15T00:38:01.807Z,1.10
2018-01-15T00:40:28.057Z,1.10
2018-01-15T00:42:54.285Z,1.10
2018-01-15T00:45:20.519Z,1.00
2018-01-15T00:47:46.755Z,1.00
2018-01-15T00:50:13.011Z,1.00
2018-01-15T00:52:39.270Z,1.10
2018-01-15T00:55:06.545Z,1.10
2018-01-15T00:57:33.509Z,1.10
2018-01-15T00:59:59.713Z,1.00
2018-01-15T01:02:25.962Z,1.10
2018-01-15T01:04:52.190Z,1.00
2018-01-15T01:07:18.446Z,1.00
2018-01-15T01:09:45.410Z,1.00
2018-01-15T01:12:12.420Z,1.00
2018-01-15T01:14:38.651Z,1.00
2018-01-15T01:17:04.868Z,1.00
2018-01-15T01:19:31.113Z,1.00
2018-01-15T01:21:57.390Z,1.00
2018-01-15T01:24:23.905Z,1.00
2018-01-15T01:26:50.136Z,1.00
2018-01-15T01:29:16.375Z,1.00
2018-01-15T01:31:42.624Z,1.10
2018-01-15T01:34:08.865Z,1.10
2018-01-15T01:36:35.135Z,1.10
2018-01-15T01:39:01.377Z,1.10
2018-01-15T01:41:27.616Z,1.10
2018-01-15T01:43:53.868Z,1.10
2018-01-15T01:46:20.099Z,1.10
2018-01-15T01:48:57.391Z,1.10
2018-01-15T01:51:23.645Z,1.10
2018-01-15T01:53:49.872Z,1.10
2018-01-15T01:56:16.389Z,1.10
2018-01-15T01:58:42.636Z,1.10
2018-01-15T02:01:08.858Z,1.00
2018-01-15T02:03:35.834Z,1.00
2018-01-15T02:06:02.080Z,1.00
2018-01-15T02:08:28.349Z,1.00
2018-01-15T02:10:54.601Z,1.10
2018-01-15T02:13:20.811Z,1.10
2018-01-15T02:15:47.061Z,1.10
2018-01-15T02:18:13.293Z,1.10
2018-01-15T02:20:39.593Z,1.10
2018-01-15T02:23:06.569Z,1.10
2018-01-15T02:25:33.090Z,1.10
2018-01-15T02:28:00.086Z,1.00
2018-01-15T02:30:26.340Z,1.00
2018-01-15T02:32:52.629Z,1.10
2018-01-15T02:35:18.876Z,1.10
2018-01-15T02:37:46.751Z,1.10
2018-01-15T02:40:13.738Z,1.10
2018-01-15T02:42:39.986Z,1.00
2018-01-15T02:45:06.243Z,1.00
2018-01-15T02:47:32.456Z,1.00
2018-01-15T02:49:58.705Z,1.00
2018-01-15T02:52:24.952Z,1.00
2018-01-15T02:54:51.184Z,1.00
2018-01-15T02:57:17.418Z,1.00
2018-01-15T02:59:43.654Z,0.90
2018-01-15T03:02:09.893Z,0.80
2018-01-15T03:04:36.889Z,0.80
2018-01-15T03:07:03.137Z,0.80
2018-01-15T03:09:29.373Z,0.70
2018-01-15T03:11:55.597Z,0.70
2018-01-15T03:14:21.847Z,0.70
2018-01-15T03:16:48.102Z,0.60
2018-01-15T03:19:14.358Z,0.60
2018-01-15T03:21:40.600Z,0.50
2018-01-15T03:24:06.882Z,0.40
2018-01-15T03:26:33.156Z,0.40
2018-01-15T03:29:06.328Z,0.40
2018-01-15T03:31:32.581Z,0.40
2018-01-15T03:33:58.802Z,0.40
2018-01-15T03:36:25.825Z,0.40
2018-01-15T03:38:52.046Z,0.30
2018-01-15T03:41:18.281Z,0.30
2018-01-15T03:43:44.509Z,0.30
2018-01-15T03:46:10.744Z,0.30
2018-01-15T03:48:37.009Z,0.30
2018-01-15T03:51:03.276Z,0.30
2018-01-15T03:53:29.510Z,0.30
2018-01-15T03:55:55.779Z,0.30
2018-01-15T03:58:22.744Z,0.30
2018-01-15T04:00:49.735Z,0.30
2018-01-15T04:03:15.982Z,0.30
2018-01-15T04:05:43.021Z,0.30
2018-01-15T04:08:09.272Z,0.20
2018-01-15T04:10:35.504Z,0.20
2018-01-15T04:13:01.751Z,0.10
2018-01-15T04:15:27.960Z,0.10
2018-01-15T04:17:54.967Z,0.00
2018-01-15T04:20:21.234Z,0.00
2018-01-15T04:22:47.477Z,0.00
2018-01-15T04:25:13.748Z,0.00
2018-01-15T04:27:40.012Z,-0.10
2018-01-15T04:30:06.280Z,0.60
2018-01-15T04:32:32.526Z,1.50
2018-01-15T04:34:58.784Z,2.10
2018-01-15T04:37:26.005Z,2.60
2018-01-15T04:39:52.969Z,3.20
2018-01-15T04:42:19.239Z,3.10
2018-01-15T04:44:45.487Z,3.30
2018-01-15T04:47:11.747Z,3.60
2018-01-15T04:49:38.717Z,3.20
2018-01-15T04:52:04.965Z,3.20
2018-01-15T04:54:31.194Z,2.70
2018-01-15T04:56:57.420Z,2.20
2018-01-15T04:59:24.425Z,1.50
2018-01-15T05:01:50.646Z,1.50
2018-01-15T05:04:16.889Z,1.20
2018-01-15T05:06:43.115Z,1.00
2018-01-15T05:09:09.333Z,0.90
2018-01-15T05:11:36.319Z,0.70
2018-01-15T05:14:02.572Z,0.70
2018-01-15T05:16:28.840Z,0.60
2018-01-15T05:18:55.112Z,0.60
2018-01-15T05:21:22.153Z,0.40
2018-01-15T05:23:48.400Z,0.40
2018-01-15T05:26:14.679Z,0.30
2018-01-15T05:28:40.925Z,0.30
2018-01-15T05:31:14.206Z,0.30
2018-01-15T05:33:40.426Z,0.80
2018-01-15T05:36:06.653Z,1.90
2018-01-15T05:38:32.903Z,2.80
2018-01-15T05:40:59.151Z,3.60
2018-01-15T05:43:25.403Z,4.20
2018-01-15T05:45:52.381Z,5.10
2018-01-15T05:48:19.357Z,5.30
2018-01-15T05:50:45.605Z,5.30
2018-01-15T05:53:11.892Z,5.40
2018-01-15T05:55:38.127Z,5.70
2018-01-15T05:58:04.403Z,5.90
2018-01-15T06:00:30.679Z,5.90
2018-01-15T06:02:56.918Z,5.90
2018-01-15T06:05:23.145Z,5.30
2018-01-15T06:07:49.384Z,4.60
2018-01-15T06:10:15.608Z,4.00
2018-01-15T06:12:41.885Z,3.40
2018-01-15T06:15:08.135Z,2.90
2018-01-15T06:17:34.357Z,2.50
2018-01-15T06:20:00.650Z,2.10
2018-01-15T06:22:27.644Z,1.70
2018-01-15T06:24:53.947Z,1.70
2018-01-15T06:27:20.164Z,1.60
2018-01-15T06:29:46.405Z,1.50
2018-01-15T06:32:12.655Z,1.50
2018-01-15T06:34:38.869Z,1.40
2018-01-15T06:37:05.113Z,1.30
2018-01-15T06:39:31.364Z,1.30
2018-01-15T06:41:57.589Z,1.30
2018-01-15T06:44:23.843Z,1.20
2018-01-15T06:46:50.077Z,1.20
2018-01-15T06:49:16.341Z,1.10
2018-01-15T06:51:42.616Z,1.10
2018-01-15T06:54:08.884Z,1.10
2018-01-15T06:56:35.136Z,1.10
2018-01-15T06:59:01.386Z,1.00
2018-01-15T07:01:27.631Z,1.00
2018-01-15T07:03:53.847Z,1.10
2018-01-15T07:06:20.136Z,1.30
2018-01-15T07:08:46.384Z,1.40
2018-01-15T07:11:13.393Z,1.50
2018-01-15T07:13:39.654Z,1.50
2018-01-15T07:16:05.904Z,1.60
2018-01-15T07:18:32.167Z,1.60
2018-01-15T07:20:59.137Z,1.70
2018-01-15T07:23:25.394Z,1.70
2018-01-15T07:25:51.650Z,1.70
2018-01-15T07:28:17.950Z,1.70
2018-01-15T07:30:44.910Z,1.70
2018-01-15T07:33:11.903Z,1.70
2018-01-15T07:35:38.151Z,1.70
2018-01-15T07:38:04.373Z,1.70
2018-01-15T07:40:30.637Z,1.70
2018-01-15T07:42:56.885Z,1.70
2018-01-15T07:45:23.140Z,1.80
2018-01-15T07:47:49.400Z,1.80
2018-01-15T07:50:16.382Z,1.80
2018-01-15T07:52:42.673Z,1.80
2018-01-15T07:55:08.969Z,1.90
2018-01-15T07:57:35.231Z,1.80
2018-01-15T08:00:01.495Z,1.90
2018-01-15T08:02:27.719Z,1.90
2018-01-15T08:04:53.970Z,1.80
2018-01-15T08:07:20.210Z,1.80
2018-01-15T08:09:46.492Z,1.70
2018-01-15T08:12:13.501Z,1.70
2018-01-15T08:14:39.760Z,1.70
2018-01-15T08:17:06.001Z,1.60
2018-01-15T08:19:33.032Z,1.60
2018-01-15T08:21:59.303Z,1.60
2018-01-15T08:24:25.534Z,1.60
2018-01-15T08:26:52.088Z,1.60
2018-01-15T08:29:18.299Z,1.60
2018-01-15T08:31:44.542Z,1.60
2018-01-15T08:34:10.783Z,1.50
2018-01-15T08:36:37.044Z,1.60
2018-01-15T08:39:03.351Z,1.60
2018-01-15T08:41:29.613Z,1.60
2018-01-15T08:43:55.850Z,1.70
2018-01-15T08:46:22.106Z,1.70
2018-01-15T08:48:49.067Z,1.70
2018-01-15T08:51:15.330Z,1.70
2018-01-15T08:53:41.570Z,1.80
2018-01-15T08:56:07.815Z,1.80
2018-01-15T08:58:34.817Z,1.90
2018-01-15T09:01:01.086Z,1.90
2018-01-15T09:03:27.387Z,1.90
2018-01-15T09:05:53.617Z,1.90
2018-01-15T09:08:19.857Z,1.90
2018-01-15T09:10:46.085Z,1.90
2018-01-15T09:13:13.069Z,2.00
2018-01-15T09:15:39.320Z,2.00
2018-01-15T09:18:05.581Z,2.10
2018-01-15T09:20:31.833Z,2.10
2018-01-15T09:22:58.087Z,2.10
2018-01-15T09:25:24.331Z,2.20
2018-01-15T09:27:50.572Z,2.20
2018-01-15T09:30:16.836Z,2.20
2018-01-15T09:32:43.826Z,2.10
2018-01-15T09:35:10.102Z,2.10
2018-01-15T09:37:36.367Z,2.10
2018-01-15T09:40:03.403Z,2.00
2018-01-15T09:42:29.627Z,2.00
2018-01-15T09:44:55.880Z,2.00
2018-01-15T09:47:22.145Z,2.00
2018-01-15T09:49:49.132Z,2.10
2018-01-15T09:52:15.424Z,2.00
2018-01-15T09:54:41.660Z,2.10
2018-01-15T09:57:07.902Z,2.10
2018-01-15T09:59:34.176Z,2.10
2018-01-15T10:02:01.170Z,2.30
2018-01-15T10:04:27.431Z,2.30
2018-01-15T10:06:53.695Z,2.40
2018-01-15T10:09:19.936Z,2.50
2018-01-15T10:11:46.199Z,2.40
2018-01-15T10:14:12.467Z,2.50
2018-01-15T10:16:38.725Z,2.50
2018-01-15T10:19:04.988Z,2.50
2018-01-15T10:21:31.234Z,2.60
2018-01-15T10:23:57.493Z,2.60
2018-01-15T10:26:24.466Z,2.80
2018-01-15T10:28:50.751Z,2.70
2018-01-15T10:31:17.697Z,2.80
2018-01-15T10:33:43.966Z,2.80
2018-01-15T10:36:10.257Z,2.80
2018-01-15T10:38:36.527Z,2.90
2018-01-15T10:41:02.757Z,2.90
2018-01-15T10:43:28.990Z,3.00
2018-01-15T10:45:55.245Z,3.00
2018-01-15T10:48:21.477Z,3.40
2018-01-15T10:50:47.721Z,3.80
2018-01-15T10:53:13.979Z,3.80
2018-01-15T10:55:40.263Z,3.60
2018-01-15T10:58:06.526Z,3.50
2018-01-15T11:00:38.754Z,3.40
2018-01-15T11:03:04.990Z,3.30
2018-01-15T11:05:31.203Z,3.20
2018-01-15T11:07:57.469Z,3.10
2018-01-15T11:10:23.699Z,3.00
2018-01-15T11:12:49.951Z,3.10
2018-01-15T11:15:16.198Z,3.10
2018-01-15T11:17:42.435Z,3.10
2018-01-15T11:20:08.680Z,3.10
2018-01-15T11:22:34.932Z,3.20
2018-01-15T11:25:01.153Z,3.20
2018-01-15T11:27:27.427Z,3.20
2018-01-15T11:29:54.426Z,3.40
2018-01-15T11:32:20.654Z,3.40
2018-01-15T11:34:46.902Z,3.60
2018-01-15T11:37:13.151Z,3.60
2018-01-15T11:39:39.409Z,3.70
2018-01-15T11:42:05.679Z,3.70
2018-01-15T11:44:31.903Z,3.60
2018-01-15T11:46:58.171Z,3.50
2018-01-15T11:49:25.114Z,3.40
2018-01-15T11:51:51.397Z,3.40
2018-01-15T11:54:17.662Z,3.30
2018-01-15T11:56:43.929Z,3.30
2018-01-15T11:59:10.179Z,3.20
2018-01-15T12:01:36.423Z,3.10
2018-01-15T12:04:02.766Z,3.10
2018-01-15T12:06:29.039Z,3.10
2018-01-15T12:08:55.298Z,3.00
2018-01-15T12:11:21.561Z,3.00
2018-01-15T12:13:47.867Z,3.00
2018-01-15T12:16:14.106Z,3.10
2018-01-15T12:18:40.352Z,3.50
2018-01-15T12:21:06.684Z,3.80
2018-01-15T12:23:32.917Z,4.10
2018-01-15T12:25:59.170Z,4.20
2018-01-15T12:28:25.460Z,4.10
2018-01-15T12:30:51.733Z,3.80
2018-01-15T12:33:18.722Z,3.50
2018-01-15T12:35:44.945Z,3.40
2018-01-15T12:38:11.213Z,3.30
2018-01-15T12:40:37.463Z,3.40
2018-01-15T12:43:03.717Z,3.70
2018-01-15T12:45:29.947Z,4.10
2018-01-15T12:47:56.219Z,4.30
2018-01-15T12:50:22.555Z,4.20
2018-01-15T12:52:48.809Z,4.00
2018-01-15T12:55:15.824Z,3.70
2018-01-15T12:57:42.072Z,3.70
2018-01-15T13:00:08.346Z,3.60
2018-01-15T13:02:34.601Z,3.50
2018-01-15T13:05:01.603Z,3.40
2018-01-15T13:07:39.980Z,3.40
2018-01-15T13:10:06.973Z,3.30
2018-01-15T13:12:33.241Z,3.30
2018-01-15T13:14:59.505Z,3.30
2018-01-15T13:17:25.741Z,3.20
2018-01-15T13:19:51.996Z,3.20
2018-01-15T13:22:18.971Z,3.20
2018-01-15T13:24:45.258Z,3.20
2018-01-15T13:27:11.505Z,3.20
2018-01-15T13:29:37.771Z,3.10
2018-01-15T13:32:04.050Z,3.10
2018-01-15T13:34:30.344Z,3.10
2018-01-15T13:36:56.553Z,3.10
2018-01-15T13:39:22.806Z,3.10
2018-01-15T13:41:49.052Z,3.20
2018-01-15T13:44:15.298Z,3.20
2018-01-15T13:46:41.529Z,3.20
2018-01-15T13:49:07.786Z,3.20
2018-01-15T13:51:34.026Z,3.20
2018-01-15T13:54:00.257Z,3.30
2018-01-15T13:56:26.544Z,3.30
2018-01-15T13:58:52.798Z,3.40
2018-01-15T14:01:19.081Z,3.30
2018-01-15T14:03:45.332Z,3.30
2018-01-15T14:06:11.595Z,3.20
2018-01-15T14:08:38.604Z,3.10
2018-01-15T14:11:04.865Z,3.10
2018-01-15T14:13:31.112Z,3.10
2018-01-15T14:15:57.401Z,3.10
2018-01-15T14:18:23.664Z,3.10
2018-01-15T14:20:49.927Z,3.10
2018-01-15T14:23:16.169Z,3.10
2018-01-15T14:25:42.442Z,3.00
2018-01-15T14:28:09.431Z,3.00
2018-01-15T14:30:35.699Z,3.00
2018-01-15T14:33:01.958Z,3.00
2018-01-15T14:35:28.193Z,2.90
2018-01-15T14:37:54.451Z,2.90
2018-01-15T14:40:21.438Z,2.80
2018-01-15T14:42:48.023Z,2.80
2018-01-15T14:45:14.273Z,2.70
2018-01-15T14:47:40.520Z,2.70
2018-01-15T14:50:06.790Z,2.70
2018-01-15T14:52:33.765Z,2.70
2018-01-15T14:55:00.050Z,2.70
2018-01-15T14:57:26.303Z,2.70
2018-01-15T14:59:52.581Z,2.70
2018-01-15T15:02:19.572Z,2.60
2018-01-15T15:04:45.822Z,2.60
2018-01-15T15:07:12.081Z,2.60
2018-01-15T15:09:38.354Z,2.60
2018-01-15T15:12:05.365Z,2.50
2018-01-15T15:14:31.609Z,2.50
2018-01-15T15:16:57.861Z,2.40
2018-01-15T15:19:24.115Z,2.40
2018-01-15T15:21:50.385Z,2.40
2018-01-15T15:24:16.662Z,2.30
2018-01-15T15:26:42.904Z,2.30
2018-01-15T15:29:16.034Z,2.30
2018-01-15T15:31:42.289Z,2.30
2018-01-15T15:34:08.564Z,2.20
2018-01-15T15:36:34.827Z,2.20
2018-01-15T15:39:01.063Z,2.10
2018-01-15T15:41:27.520Z,2.10
2018-01-15T15:43:53.836Z,2.10
2018-01-15T15:46:20.091Z,2.10
2018-01-15T15:48:46.399Z,2.40
2018-01-15T15:51:13.413Z,2.40
2018-01-15T15:53:39.643Z,2.40
2018-01-15T15:56:05.895Z,2.30
2018-01-15T15:58:32.177Z,2.20
2018-01-15T16:00:59.190Z,2.10
2018-01-15T16:03:25.447Z,2.10
2018-01-15T16:05:51.763Z,2.00
2018-01-15T16:08:18.048Z,2.00
2018-01-15T16:10:45.065Z,1.90
2018-01-15T16:13:11.305Z,1.90
2018-01-15T16:15:37.886Z,1.90
2018-01-15T16:18:04.152Z,1.90
2018-01-15T16:20:31.144Z,1.80
2018-01-15T16:22:57.473Z,1.80
2018-01-15T16:25:23.732Z,1.80
2018-01-15T16:27:49.998Z,1.80
2018-01-15T16:30:16.276Z,1.90
2018-01-15T16:32:43.295Z,1.80
2018-01-15T16:35:09.531Z,1.80
2018-01-15T16:37:35.807Z,1.80
2018-01-15T16:40:02.854Z,2.30
2018-01-15T16:42:29.101Z,2.20
2018-01-15T16:44:55.367Z,2.80
2018-01-15T16:47:21.644Z,3.20
2018-01-15T16:49:47.922Z,3.50
2018-01-15T16:52:14.206Z,3.80
2018-01-15T16:54:40.503Z,4.00
2018-01-15T16:57:06.800Z,4.10
2018-01-15T16:59:33.066Z,4.30
2018-01-15T17:01:59.355Z,4.40
2018-01-15T17:04:26.383Z,4.50
2018-01-15T17:06:52.686Z,4.50
2018-01-15T17:09:18.969Z,4.60
2018-01-15T17:11:45.282Z,4.70
2018-01-15T17:14:11.576Z,4.70
2018-01-15T17:16:37.863Z,4.70
2018-01-15T17:19:04.221Z,4.70
2018-01-15T17:21:30.510Z,4.70
2018-01-15T17:23:56.746Z,4.60
2018-01-15T17:26:23.727Z,4.50
2018-01-15T17:28:50.013Z,4.50
2018-01-15T17:31:17.048Z,4.20
2018-01-15T17:33:43.326Z,4.20
2018-01-15T17:36:10.342Z,3.60
2018-01-15T17:38:36.666Z,3.60
2018-01-15T17:41:02.950Z,3.40
2018-01-15T17:43:29.233Z,3.20
2018-01-15T17:45:55.533Z,3.00
2018-01-15T17:48:21.840Z,2.80
2018-01-15T17:50:48.179Z,2.70
2018-01-15T17:53:14.451Z,2.60
2018-01-15T17:55:40.738Z,2.50
2018-01-15T17:58:07.752Z,2.50
2018-01-15T18:00:34.063Z,2.40
2018-01-15T18:03:00.342Z,2.50
2018-01-15T18:05:26.750Z,2.60
2018-01-15T18:07:53.099Z,2.60
2018-01-15T18:10:19.382Z,2.60
2018-01-15T18:12:45.654Z,2.60
2018-01-15T18:15:12.685Z,2.70
2018-01-15T18:17:38.987Z,2.60
2018-01-15T18:20:05.355Z,2.70
2018-01-15T18:22:31.633Z,2.70
2018-01-15T18:24:58.703Z,2.70
2018-01-15T18:27:25.019Z,2.70
2018-01-15T18:29:52.056Z,2.80
2018-01-15T18:32:18.386Z,2.70
2018-01-15T18:34:44.720Z,2.70
2018-01-15T18:37:11.081Z,2.60
2018-01-15T18:39:37.414Z,2.50
2018-01-15T18:42:03.782Z,2.30
2018-01-15T18:44:30.137Z,2.20
2018-01-15T18:46:57.231Z,2.10
2018-01-15T18:49:23.605Z,2.00
2018-01-15T18:51:49.959Z,2.00
2018-01-15T18:54:16.322Z,1.90
2018-01-15T18:56:42.703Z,1.80
2018-01-15T18:59:09.059Z,1.70
2018-01-15T19:01:35.454Z,1.70
2018-01-15T19:04:01.813Z,1.60
2018-01-15T19:06:28.920Z,1.70
2018-01-15T19:08:55.260Z,1.60
2018-01-15T19:11:21.601Z,1.70
2018-01-15T19:13:47.931Z,1.70
2018-01-15T19:16:14.556Z,1.60
2018-01-15T19:18:40.959Z,1.60
2018-01-15T19:21:07.307Z,1.50
2018-01-15T19:23:33.671Z,1.50
2018-01-15T19:26:00.752Z,1.40
2018-01-15T19:28:27.174Z,1.40
2018-01-15T19:30:53.519Z,1.40
2018-01-15T19:33:20.664Z,1.30
2018-01-15T19:35:52.932Z,1.30
2018-01-15T19:38:19.372Z,1.30
2018-01-15T19:40:45.759Z,1.30
2018-01-15T19:43:30.579Z,1.30
2018-01-15T19:46:02.924Z,1.30
2018-01-15T19:48:36.174Z,1.30
2018-01-15T19:51:08.375Z,1.30
2018-01-15T19:53:40.781Z,1.30
2018-01-15T19:56:13.012Z,1.30
2018-01-15T19:58:45.261Z,1.30
2018-01-15T20:01:18.281Z,1.30
2018-01-15T20:03:50.553Z,1.30
2018-01-15T20:06:22.813Z,1.30
2018-01-15T20:08:55.121Z,1.40
2018-01-15T20:11:21.506Z,1.40
2018-01-15T20:13:47.908Z,1.40
2018-01-15T20:16:14.348Z,1.50
2018-01-15T20:18:41.488Z,1.50
2018-01-15T20:21:08.648Z,1.60
2018-01-15T20:23:35.725Z,1.60
2018-01-15T20:26:02.850Z,1.60
2018-01-15T20:28:29.187Z,1.60
2018-01-15T20:30:55.559Z,1.60
2018-01-15T20:33:21.940Z,1.70
2018-01-15T20:35:48.289Z,1.70
2018-01-15T20:38:14.681Z,1.70
2018-01-15T20:40:41.066Z,1.70
2018-01-15T20:43:07.412Z,1.80
2018-01-15T20:45:34.598Z,1.80
2018-01-15T20:48:00.951Z,1.80
2018-01-15T20:50:27.323Z,1.80
2018-01-15T20:52:54.014Z,1.80
2018-01-15T20:55:20.360Z,1.80
2018-01-15T20:57:46.730Z,1.80
2018-01-15T21:00:13.083Z,1.80
2018-01-15T21:02:39.418Z,1.80
2018-01-15T21:05:05.826Z,1.90
2018-01-15T21:07:32.154Z,1.90
2018-01-15T21:09:59.223Z,1.90
2018-01-15T21:12:25.549Z,1.90
2018-01-15T21:14:52.631Z,1.90
2018-01-15T21:17:18.944Z,1.90
2018-01-15T21:19:45.994Z,1.90
2018-01-15T21:22:12.321Z,1.90
2018-01-15T21:24:38.686Z,1.90
2018-01-15T21:27:05.097Z,1.80
2018-01-15T21:29:31.421Z,1.80
2018-01-15T21:31:57.719Z,1.80
2018-01-15T21:34:24.742Z,1.80
2018-01-15T21:36:51.016Z,1.70
2018-01-15T21:39:17.324Z,1.70
2018-01-15T21:41:43.604Z,1.60
2018-01-15T21:44:10.625Z,1.60
2018-01-15T21:46:37.938Z,1.60
2018-01-15T21:49:05.128Z,1.70
2018-01-15T21:51:31.405Z,1.70
2018-01-15T21:53:57.720Z,1.70
2018-01-15T21:56:23.981Z,1.70
2018-01-15T21:58:50.284Z,1.70
2018-01-15T22:01:16.603Z,1.70
2018-01-15T22:03:43.598Z,1.80
2018-01-15T22:06:09.867Z,1.80
2018-01-15T22:08:36.122Z,1.80
2018-01-15T22:11:02.385Z,1.80
2018-01-15T22:13:29.386Z,1.80
2018-01-15T22:15:55.635Z,1.80
2018-01-15T22:18:21.882Z,1.80
2018-01-15T22:20:48.160Z,1.90
2018-01-15T22:23:14.394Z,1.90
2018-01-15T22:25:40.654Z,1.90
2018-01-15T22:28:07.660Z,1.90
2018-01-15T22:30:33.915Z,1.90
2018-01-15T22:33:00.183Z,1.90
2018-01-15T22:35:26.450Z,1.90
2018-01-15T22:37:52.686Z,1.80
2018-01-15T22:40:19.720Z,1.90
2018-01-15T22:42:45.988Z,1.80
2018-01-15T22:45:12.257Z,1.90
2018-01-15T22:47:38.490Z,1.80
2018-01-15T22:50:05.009Z,1.80
2018-01-15T22:52:31.977Z,1.60
2018-01-15T22:54:58.204Z,1.60
2018-01-15T22:57:25.205Z,1.50
2018-01-15T22:59:51.466Z,1.50
2018-01-15T23:02:17.704Z,1.60
2018-01-15T23:04:43.951Z,1.60
2018-01-15T23:07:10.239Z,1.60
2018-01-15T23:09:36.473Z,1.60
2018-01-15T23:12:03.459Z,1.60
2018-01-15T23:14:29.721Z,1.60
2018-01-15T23:16:55.973Z,1.60
2018-01-15T23:19:22.259Z,1.60
2018-01-15T23:21:48.480Z,1.60
2018-01-15T23:24:15.483Z,1.70
2018-01-15T23:26:41.741Z,1.60
2018-01-15T23:29:08.011Z,1.70
2018-01-15T23:31:34.283Z,1.70
2018-01-15T23:34:00.530Z,1.70
2018-01-15T23:36:26.788Z,1.70
2018-01-15T23:38:53.027Z,1.70
2018-01-15T23:41:19.272Z,1.70
2018-01-15T23:43:45.509Z,1.80
2018-01-15T23:46:11.787Z,1.80
2018-01-15T23:48:38.031Z,1.80
2018-01-15T23:51:04.269Z,1.80
2018-01-15T23:53:30.814Z,1.80
2018-01-15T23:55:57.050Z,1.80
2018-01-15T23:58:23.303Z,1.90
